Time;durP1;ratioP1;P1;durP2;ratioP2;P2;SDS_P1;SDS_P2;PMS_P1;PMS_P2;Temp;Humidity;BMP_temperature;BMP_pressure;BME280_temperature;BME280_humidity;BME280_pressure;Samples;Min_cycle;Max_cycle;Signal;HPM_P1;HPM_P2
2021/10/07 00:02:02;;;;;;;9.90;9.20;;;10.60;99.90;;;;;;4906667;29;20658;-77
2021/10/07 00:04:30;;;;;;;10.00;9.40;;;10.60;99.90;;;;;;4907378;29;20212;-76
2021/10/07 00:06:57;;;;;;;10.20;9.50;;;10.60;99.90;;;;;;4908464;29;20224;-76
2021/10/07 00:09:24;;;;;;;10.47;9.80;;;10.60;99.90;;;;;;4906508;29;20617;-76
2021/10/07 00:11:51;;;;;;;9.90;9.30;;;10.70;99.90;;;;;;4911059;29;20694;-76
2021/10/07 00:14:20;;;;;;;9.73;9.03;;;10.70;99.90;;;;;;4909983;29;20203;-76
2021/10/07 00:16:47;;;;;;;9.50;8.90;;;10.70;99.90;;;;;;4911969;29;20264;-77
2021/10/07 00:19:13;;;;;;;10.47;9.87;;;10.70;99.90;;;;;;4909843;29;20262;-76
2021/10/07 00:21:40;;;;;;;10.30;9.60;;;10.70;99.90;;;;;;4905861;29;20205;-76
2021/10/07 00:24:11;;;;;;;10.63;9.93;;;10.70;99.90;;;;;;4905915;29;20215;-76
2021/10/07 00:26:39;;;;;;;10.43;9.60;;;10.70;99.90;;;;;;4908055;29;20231;-76
2021/10/07 00:29:22;;;;;;;10.60;9.90;;;10.70;99.90;;;;;;4907117;29;20285;-76
2021/10/07 00:31:53;;;;;;;11.10;10.30;;;10.70;99.90;;;;;;4907670;29;20265;-76
2021/10/07 00:34:24;;;;;;;10.70;9.80;;;10.70;99.90;;;;;;4907929;29;20219;-76
2021/10/07 00:37:02;;;;;;;10.50;9.70;;;10.70;99.90;;;;;;4895747;29;20216;-76
2021/10/07 00:39:29;;;;;;;10.37;9.57;;;10.70;99.90;;;;;;4901335;29;20197;-76
2021/10/07 00:41:56;;;;;;;9.73;9.07;;;10.70;99.90;;;;;;4909437;29;20222;-76
2021/10/07 00:44:23;;;;;;;9.93;9.33;;;10.60;99.90;;;;;;4906120;29;20280;-76
2021/10/07 00:46:53;;;;;;;10.23;9.53;;;10.50;99.90;;;;;;4907732;29;20631;-76
2021/10/07 00:49:22;;;;;;;9.90;9.10;;;10.50;99.90;;;;;;4905909;29;20203;-76
2021/10/07 00:51:49;;;;;;;10.53;9.77;;;10.50;99.90;;;;;;4907809;29;20239;-76
2021/10/07 00:54:18;;;;;;;10.23;9.53;;;10.50;99.90;;;;;;4906102;29;20721;-76
2021/10/07 00:56:45;;;;;;;9.73;9.13;;;10.40;99.90;;;;;;4902049;29;20788;-76
2021/10/07 00:59:12;;;;;;;10.97;10.00;;;10.40;99.90;;;;;;4904512;29;20224;-77
2021/10/07 01:01:40;;;;;;;10.90;10.10;;;10.40;99.90;;;;;;4904551;29;20212;-76
2021/10/07 01:04:09;;;;;;;10.90;10.00;;;10.50;99.90;;;;;;4905677;29;20264;-75
2021/10/07 01:06:36;;;;;;;10.40;9.70;;;10.50;99.90;;;;;;4906342;29;20705;-76
2021/10/07 01:09:04;;;;;;;10.57;9.77;;;10.50;99.90;;;;;;4903012;29;20286;-77
2021/10/07 01:11:32;;;;;;;10.77;10.00;;;10.50;99.90;;;;;;4907973;29;20192;-76
2021/10/07 01:13:59;;;;;;;11.37;10.50;;;10.50;99.90;;;;;;4906223;29;20192;-76
2021/10/07 01:16:26;;;;;;;10.47;9.73;;;10.50;99.90;;;;;;4903940;29;20220;-76
2021/10/07 01:18:53;;;;;;;10.73;9.93;;;10.50;99.90;;;;;;4905102;29;20239;-77
2021/10/07 01:21:22;;;;;;;11.60;10.70;;;10.50;99.90;;;;;;4905499;29;20248;-76
2021/10/07 01:23:50;;;;;;;10.87;9.97;;;10.50;99.90;;;;;;4906497;29;20272;-76
2021/10/07 01:26:18;;;;;;;11.47;10.67;;;10.50;99.90;;;;;;4904754;29;20223;-76
2021/10/07 01:28:47;;;;;;;10.40;9.70;;;10.50;99.90;;;;;;4900573;29;20263;-76
2021/10/07 01:31:14;;;;;;;10.60;9.83;;;10.50;99.90;;;;;;4908471;29;20199;-76
2021/10/07 01:33:41;;;;;;;10.20;9.50;;;10.50;99.90;;;;;;4904177;29;20540;-76
2021/10/07 01:36:09;;;;;;;11.03;10.23;;;10.50;99.90;;;;;;4905479;29;20264;-76
2021/10/07 01:38:38;;;;;;;10.40;9.60;;;10.50;99.90;;;;;;4906556;29;20201;-76
2021/10/07 01:41:04;;;;;;;10.03;9.33;;;10.50;99.90;;;;;;4904282;29;20235;-76
2021/10/07 01:43:31;;;;;;;10.03;9.33;;;10.50;99.90;;;;;;4905660;29;20233;-76
2021/10/07 01:45:58;;;;;;;9.93;9.30;;;10.40;99.90;;;;;;4902362;29;20287;-76
2021/10/07 01:48:25;;;;;;;9.83;9.23;;;10.50;99.90;;;;;;4904628;29;20205;-76
2021/10/07 01:50:52;;;;;;;10.10;9.40;;;10.40;99.90;;;;;;4906373;29;20673;-76
2021/10/07 01:53:18;;;;;;;10.40;9.70;;;10.50;99.90;;;;;;4905038;29;20236;-76
2021/10/07 01:55:46;;;;;;;10.53;9.83;;;10.40;99.90;;;;;;4905303;29;20212;-76
2021/10/07 01:58:13;;;;;;;10.20;9.60;;;10.40;99.90;;;;;;4903683;29;20252;-76
2021/10/07 02:00:40;;;;;;;10.70;10.00;;;10.40;99.90;;;;;;4905925;29;20200;-76
2021/10/07 02:03:07;;;;;;;10.40;9.50;;;10.40;99.90;;;;;;4905250;29;20255;-76
2021/10/07 02:05:34;;;;;;;10.20;9.50;;;10.40;99.90;;;;;;4901619;29;20272;-77
2021/10/07 02:08:01;;;;;;;10.10;9.40;;;10.40;99.90;;;;;;4904204;29;20228;-76
2021/10/07 02:10:27;;;;;;;10.33;9.70;;;10.40;99.90;;;;;;4905075;29;20208;-76
2021/10/07 02:12:56;;;;;;;9.93;9.33;;;10.40;99.90;;;;;;4904634;29;20265;-76
2021/10/07 02:15:22;;;;;;;10.30;9.70;;;10.30;99.90;;;;;;4905219;29;20203;-75
2021/10/07 02:17:49;;;;;;;10.07;9.43;;;10.30;99.90;;;;;;4903214;29;20280;-76
2021/10/07 02:20:16;;;;;;;10.80;10.00;;;10.30;99.90;;;;;;4905016;29;20235;-76
2021/10/07 02:22:43;;;;;;;10.00;9.40;;;10.40;99.90;;;;;;4900210;29;20674;-76
2021/10/07 02:25:10;;;;;;;10.63;9.83;;;10.40;99.90;;;;;;4902553;29;20694;-76
2021/10/07 02:27:37;;;;;;;10.30;9.60;;;10.40;99.90;;;;;;4904435;29;20216;-76
2021/10/07 02:30:09;;;;;;;10.27;9.67;;;10.40;99.90;;;;;;4904294;29;20244;-76
2021/10/07 02:32:37;;;;;;;10.10;9.40;;;10.30;99.90;;;;;;4904695;29;20264;-76
2021/10/07 02:35:05;;;;;;;10.57;9.83;;;10.30;99.90;;;;;;4906165;29;20427;-76
2021/10/07 02:37:31;;;;;;;9.70;9.20;;;10.30;99.90;;;;;;4907059;29;20275;-76
2021/10/07 02:40:00;;;;;;;9.73;9.03;;;10.40;99.90;;;;;;4902577;29;20215;-78
2021/10/07 02:42:27;;;;;;;10.07;9.47;;;10.40;99.90;;;;;;4905144;29;20704;-79
2021/10/07 02:44:54;;;;;;;10.60;9.90;;;10.40;99.90;;;;;;4906775;29;20236;-78
2021/10/07 02:47:22;;;;;;;10.60;9.80;;;10.40;99.90;;;;;;4906848;29;20227;-78
2021/10/07 02:49:49;;;;;;;10.20;9.50;;;10.40;99.90;;;;;;4904531;29;20204;-78
2021/10/07 02:52:16;;;;;;;10.57;9.83;;;10.40;99.90;;;;;;4908802;29;20200;-77
2021/10/07 02:54:42;;;;;;;11.27;10.57;;;10.40;99.90;;;;;;4907614;29;20638;-76
2021/10/07 02:57:10;;;;;;;11.30;10.43;;;10.40;99.90;;;;;;4902243;29;20224;-77
2021/10/07 02:59:37;;;;;;;10.37;9.67;;;10.40;99.90;;;;;;4905798;29;20201;-77
2021/10/07 03:02:04;;;;;;;10.70;10.00;;;10.40;99.90;;;;;;4894480;29;20201;-77
2021/10/07 03:04:32;;;;;;;10.60;9.90;;;10.40;99.90;;;;;;4881284;29;20640;-76
2021/10/07 03:06:59;;;;;;;10.30;9.70;;;10.40;99.90;;;;;;4882009;29;20273;-77
2021/10/07 03:09:26;;;;;;;10.90;10.20;;;10.50;99.90;;;;;;4882308;29;20289;-77
2021/10/07 03:11:52;;;;;;;11.33;10.63;;;10.50;99.90;;;;;;4896806;29;20205;-78
2021/10/07 03:14:19;;;;;;;11.40;10.70;;;10.50;99.90;;;;;;4910184;29;20753;-78
2021/10/07 03:16:46;;;;;;;11.00;10.30;;;10.50;99.90;;;;;;4908261;29;20802;-77
2021/10/07 03:19:13;;;;;;;10.70;10.07;;;10.50;99.90;;;;;;4904954;29;20626;-77
2021/10/07 03:21:41;;;;;;;10.47;9.87;;;10.50;99.90;;;;;;4908591;29;20620;-79
2021/10/07 03:24:08;;;;;;;11.20;10.50;;;10.50;99.90;;;;;;4915696;29;20283;-77
2021/10/07 03:26:35;;;;;;;11.20;10.60;;;10.50;99.90;;;;;;4907769;29;20307;-78
2021/10/07 03:29:02;;;;;;;11.77;10.87;;;10.60;99.90;;;;;;4905242;29;20259;-78
2021/10/07 03:31:29;;;;;;;11.57;10.77;;;10.50;99.90;;;;;;4905134;29;20205;-77
2021/10/07 03:33:56;;;;;;;11.50;10.80;;;10.50;99.90;;;;;;4909049;29;20725;-77
2021/10/07 03:36:23;;;;;;;10.87;10.10;;;10.50;99.90;;;;;;4916974;29;20219;-77
2021/10/07 03:38:51;;;;;;;10.93;10.20;;;10.60;99.90;;;;;;4911844;29;20241;-77
2021/10/07 03:41:18;;;;;;;11.60;10.90;;;10.60;99.90;;;;;;4912094;29;20259;-77
2021/10/07 03:43:44;;;;;;;11.70;11.00;;;10.50;99.90;;;;;;4911377;29;20645;-77
2021/10/07 03:46:11;;;;;;;11.90;11.10;;;10.50;99.90;;;;;;4916740;29;20638;-77
2021/10/07 03:48:38;;;;;;;10.80;10.17;;;10.50;99.90;;;;;;4907116;29;20203;-78
2021/10/07 03:51:05;;;;;;;11.17;10.37;;;10.50;99.90;;;;;;4904189;29;20690;-77
2021/10/07 03:53:32;;;;;;;12.30;11.17;;;10.50;99.90;;;;;;4904149;29;20201;-77
2021/10/07 03:56:00;;;;;;;12.77;11.97;;;10.60;99.90;;;;;;4910619;29;20716;-77
2021/10/07 03:58:27;;;;;;;12.00;11.30;;;10.50;99.90;;;;;;4906101;29;20204;-77
2021/10/07 04:00:54;;;;;;;11.83;10.93;;;10.50;99.90;;;;;;4909116;29;20208;-78
2021/10/07 04:03:21;;;;;;;11.67;10.87;;;10.60;99.90;;;;;;4910152;29;20191;-78
2021/10/07 04:05:49;;;;;;;12.10;11.40;;;10.50;99.90;;;;;;4908784;29;20192;-78
2021/10/07 04:08:19;;;;;;;13.17;12.13;;;10.60;99.90;;;;;;4909114;29;20581;-78
2021/10/07 04:10:50;;;;;;;12.40;11.70;;;10.50;99.90;;;;;;4907762;29;20196;-78
2021/10/07 04:13:20;;;;;;;12.73;11.93;;;10.50;99.90;;;;;;4907923;29;20197;-77
2021/10/07 04:15:47;;;;;;;11.97;11.20;;;10.50;99.90;;;;;;4881080;29;20203;-77
2021/10/07 04:18:17;;;;;;;13.03;12.13;;;10.50;99.90;;;;;;4902649;29;20714;-78
2021/10/07 04:20:45;;;;;;;11.87;11.10;;;10.40;99.90;;;;;;4914114;29;20204;-78
2021/10/07 04:23:13;;;;;;;11.87;11.20;;;10.40;99.90;;;;;;4903472;29;20200;-78
2021/10/07 04:25:40;;;;;;;12.00;11.30;;;10.50;99.90;;;;;;4899696;29;20347;-77
2021/10/07 04:28:08;;;;;;;12.20;11.40;;;10.50;99.90;;;;;;4903383;29;20291;-77
2021/10/07 04:30:37;;;;;;;12.60;11.70;;;10.50;99.90;;;;;;4909955;29;20196;-77
2021/10/07 04:33:04;;;;;;;12.53;11.63;;;10.50;99.90;;;;;;4901493;29;20205;-76
2021/10/07 04:35:31;;;;;;;12.43;11.60;;;10.40;99.90;;;;;;4903214;29;20315;-77
2021/10/07 04:37:58;;;;;;;12.13;11.40;;;10.40;99.90;;;;;;4901425;29;20303;-76
2021/10/07 04:40:26;;;;;;;12.33;11.60;;;10.50;99.90;;;;;;4908645;29;20207;-77
2021/10/07 04:42:53;;;;;;;12.33;11.63;;;10.50;99.90;;;;;;4898318;29;20272;-78
2021/10/07 04:45:20;;;;;;;12.20;11.50;;;10.50;99.90;;;;;;4897494;29;20228;-77
2021/10/07 04:47:48;;;;;;;12.80;11.80;;;10.50;99.90;;;;;;4913148;29;20664;-77
2021/10/07 04:50:15;;;;;;;12.30;11.60;;;10.50;99.90;;;;;;4882361;29;20198;-77
2021/10/07 04:52:42;;;;;;;12.03;11.23;;;10.50;99.90;;;;;;4883714;29;20547;-77
2021/10/07 04:55:10;;;;;;;12.00;11.20;;;10.50;99.90;;;;;;4882413;29;20208;-77
2021/10/07 04:57:37;;;;;;;12.07;11.37;;;10.50;99.90;;;;;;4882129;29;20240;-77
2021/10/07 05:00:05;;;;;;;12.17;11.37;;;10.50;99.90;;;;;;4882001;29;20209;-77
2021/10/07 05:02:32;;;;;;;12.20;11.33;;;10.50;99.90;;;;;;4883029;29;20237;-77
2021/10/07 05:05:00;;;;;;;11.80;11.00;;;10.60;99.90;;;;;;4903865;29;20220;-77
2021/10/07 05:07:27;;;;;;;11.67;10.97;;;10.50;99.90;;;;;;4905070;29;20590;-77
2021/10/07 05:09:54;;;;;;;11.93;11.20;;;10.50;99.90;;;;;;4903386;29;20259;-80
2021/10/07 05:12:21;;;;;;;12.20;11.50;;;10.50;99.90;;;;;;4915556;29;20940;-78
2021/10/07 05:14:47;;;;;;;5.00;4.60;;;10.50;99.90;;;;;;4905957;29;20251;-78
2021/10/07 05:17:14;;;;;;;3.40;3.10;;;10.50;99.90;;;;;;4907851;29;20219;-77
2021/10/07 05:19:41;;;;;;;4.90;3.10;;;10.50;99.90;;;;;;4906174;29;20205;-77
2021/10/07 05:22:09;;;;;;;4.53;4.13;;;10.50;99.90;;;;;;4907516;29;20203;-77
2021/10/07 05:24:36;;;;;;;4.70;3.87;;;10.50;99.90;;;;;;4906893;29;20268;-77
2021/10/07 05:27:03;;;;;;;4.00;3.70;;;10.50;99.90;;;;;;4907366;29;20227;-77
2021/10/07 05:29:30;;;;;;;4.03;3.73;;;10.50;99.90;;;;;;4906207;29;20657;-77
2021/10/07 05:31:57;;;;;;;4.20;3.80;;;10.50;99.90;;;;;;4908495;29;20268;-77
2021/10/07 05:34:23;;;;;;;4.10;3.70;;;10.50;99.90;;;;;;4907087;29;20191;-77
2021/10/07 05:36:50;;;;;;;4.23;3.83;;;10.50;99.90;;;;;;4908522;29;20491;-77
2021/10/07 05:39:18;;;;;;;3.90;3.60;;;10.50;99.90;;;;;;4906801;29;20252;-77
2021/10/07 05:41:45;;;;;;;3.83;3.53;;;10.50;99.90;;;;;;4907177;29;20208;-77
2021/10/07 05:44:12;;;;;;;3.60;3.30;;;10.50;99.90;;;;;;4908348;29;20200;-77
2021/10/07 05:46:39;;;;;;;3.90;3.60;;;10.60;99.90;;;;;;4905915;29;20225;-77
2021/10/07 05:49:07;;;;;;;3.97;3.30;;;10.60;99.90;;;;;;4908097;29;20294;-78
2021/10/07 05:51:34;;;;;;;3.67;3.30;;;10.60;99.90;;;;;;4906748;29;20580;-77
2021/10/07 05:54:01;;;;;;;4.17;3.37;;;10.70;99.90;;;;;;4908175;29;20267;-77
2021/10/07 05:56:29;;;;;;;4.23;3.67;;;10.70;99.90;;;;;;4908482;29;20283;-77
2021/10/07 05:58:56;;;;;;;3.50;3.20;;;10.70;99.90;;;;;;4908049;29;20195;-77
2021/10/07 06:01:23;;;;;;;3.83;3.53;;;10.70;99.90;;;;;;4908006;29;20263;-78
2021/10/07 06:03:49;;;;;;;3.73;3.43;;;10.70;99.90;;;;;;4905651;29;20204;-77
2021/10/07 06:06:16;;;;;;;3.57;3.30;;;10.70;99.90;;;;;;4906617;29;20271;-77
2021/10/07 06:08:43;;;;;;;5.20;3.90;;;10.70;99.90;;;;;;4906641;29;20300;-77
2021/10/07 06:11:10;;;;;;;4.93;4.00;;;10.70;99.90;;;;;;4908407;29;20266;-78
2021/10/07 06:13:38;;;;;;;4.70;3.67;;;10.70;99.90;;;;;;4907264;29;20665;-77
2021/10/07 06:16:05;;;;;;;4.03;3.67;;;10.70;99.90;;;;;;4907807;29;20640;-77
2021/10/07 06:18:32;;;;;;;4.37;3.40;;;10.70;99.90;;;;;;4906640;29;20278;-78
2021/10/07 06:20:59;;;;;;;4.10;3.70;;;10.70;99.90;;;;;;4906012;29;20203;-79
2021/10/07 06:23:26;;;;;;;4.40;3.60;;;10.70;99.90;;;;;;4910279;29;20259;-79
2021/10/07 06:25:52;;;;;;;4.40;3.70;;;10.70;99.90;;;;;;4908832;29;20436;-79
2021/10/07 06:28:19;;;;;;;7.40;4.00;;;10.70;99.90;;;;;;4910683;29;20204;-79
2021/10/07 06:30:48;;;;;;;3.70;3.40;;;10.80;99.90;;;;;;4910724;29;20200;-79
2021/10/07 06:33:14;;;;;;;4.37;3.80;;;10.80;99.90;;;;;;4910167;29;20199;-79
2021/10/07 06:35:41;;;;;;;4.27;3.83;;;10.70;99.90;;;;;;4907877;29;20196;-79
2021/10/07 06:38:08;;;;;;;4.10;3.80;;;10.80;99.90;;;;;;4907207;29;20200;-78
2021/10/07 06:40:35;;;;;;;3.77;3.40;;;10.80;99.90;;;;;;4914444;29;20208;-79
2021/10/07 06:43:02;;;;;;;4.93;4.20;;;10.90;99.90;;;;;;4910677;29;20209;-79
2021/10/07 06:45:29;;;;;;;4.90;3.40;;;10.90;99.90;;;;;;4912232;29;20212;-79
2021/10/07 06:47:57;;;;;;;4.03;3.63;;;11.00;99.90;;;;;;4906861;29;20223;-79
2021/10/07 06:50:24;;;;;;;4.10;3.70;;;11.00;99.90;;;;;;4913506;29;20263;-79
2021/10/07 06:52:51;;;;;;;4.00;3.70;;;11.10;99.90;;;;;;4902990;29;20258;-79
2021/10/07 06:55:18;;;;;;;3.87;3.57;;;11.10;99.90;;;;;;4907022;29;20721;-79
2021/10/07 06:57:45;;;;;;;4.07;3.33;;;11.10;99.90;;;;;;4903249;29;20239;-78
2021/10/07 07:00:12;;;;;;;7.40;6.90;;;11.10;99.90;;;;;;4902366;29;20204;-78
2021/10/07 07:02:39;;;;;;;3.70;3.40;;;11.20;99.90;;;;;;4907828;29;20260;-79
2021/10/07 07:05:09;;;;;;;3.50;3.30;;;11.20;99.90;;;;;;4908270;29;20258;-79
2021/10/07 07:07:37;;;;;;;3.57;3.27;;;11.20;99.90;;;;;;4909003;29;20216;-79
2021/10/07 07:10:05;;;;;;;3.73;3.20;;;11.20;99.90;;;;;;4907087;29;20208;-79
2021/10/07 07:12:32;;;;;;;3.60;3.30;;;11.20;99.90;;;;;;4909145;29;20257;-79
2021/10/07 07:14:58;;;;;;;3.57;3.27;;;11.20;99.90;;;;;;4905525;29;20272;-80
2021/10/07 07:17:25;;;;;;;4.40;4.10;;;11.20;99.90;;;;;;4905391;29;20353;-77
2021/10/07 07:19:52;;;;;;;4.23;3.93;;;11.30;99.90;;;;;;4901373;29;20260;-77
2021/10/07 07:22:20;;;;;;;4.43;3.40;;;11.30;99.90;;;;;;4912127;29;20196;-78
2021/10/07 07:24:47;;;;;;;7.10;6.40;;;11.40;99.90;;;;;;4904376;29;20272;-79
2021/10/07 07:27:16;;;;;;;7.87;7.40;;;11.40;99.90;;;;;;4902017;29;20224;-76
2021/10/07 07:29:42;;;;;;;11.60;10.90;;;11.30;99.90;;;;;;4895953;29;20206;-76
2021/10/07 07:32:09;;;;;;;11.37;10.67;;;11.40;99.90;;;;;;4896215;29;20209;-76
2021/10/07 07:34:36;;;;;;;11.77;11.07;;;11.50;99.90;;;;;;4897577;29;20201;-76
2021/10/07 07:37:03;;;;;;;11.83;11.03;;;11.60;99.90;;;;;;4903877;29;20645;-76
2021/10/07 07:39:31;;;;;;;11.00;10.30;;;11.60;99.90;;;;;;4906771;29;20208;-76
2021/10/07 07:41:58;;;;;;;12.20;11.40;;;11.70;99.90;;;;;;4906976;29;20197;-76
2021/10/07 07:44:25;;;;;;;11.70;10.90;;;11.80;99.90;;;;;;4905293;29;20592;-76
2021/10/07 07:46:52;;;;;;;3.60;3.27;;;11.90;99.90;;;;;;4897822;29;20222;-75
2021/10/07 07:49:19;;;;;;;8.50;7.90;;;12.00;99.90;;;;;;4900537;29;20202;-76
2021/10/07 07:51:45;;;;;;;5.37;3.23;;;12.10;99.90;;;;;;4902454;29;20268;-76
2021/10/07 07:54:12;;;;;;;3.50;3.20;;;12.10;99.90;;;;;;4901193;29;20234;-76
2021/10/07 07:56:40;;;;;;;10.17;9.27;;;12.20;99.90;;;;;;4908683;29;20297;-76
2021/10/07 07:59:08;;;;;;;3.20;3.00;;;12.30;99.90;;;;;;4910185;29;20202;-76
2021/10/07 08:01:36;;;;;;;3.37;3.17;;;12.40;99.90;;;;;;4907630;29;20203;-76
2021/10/07 08:04:06;;;;;;;7.73;7.23;;;12.50;99.90;;;;;;4907982;29;20245;-76
2021/10/07 08:06:33;;;;;;;6.37;5.90;;;12.60;99.90;;;;;;4895874;29;20231;-77
2021/10/07 08:09:01;;;;;;;9.00;8.23;;;12.60;99.90;;;;;;4901793;29;20208;-77
2021/10/07 08:11:28;;;;;;;3.83;3.37;;;12.60;99.90;;;;;;4904792;29;20218;-76
2021/10/07 08:13:58;;;;;;;3.50;3.20;;;12.80;99.90;;;;;;4912950;29;20262;-76
2021/10/07 08:16:25;;;;;;;4.33;3.90;;;12.80;99.90;;;;;;4908664;29;20775;-76
2021/10/07 08:18:54;;;;;;;3.90;3.50;;;12.80;99.90;;;;;;4907102;29;20209;-76
2021/10/07 08:21:22;;;;;;;4.63;3.70;;;12.80;99.90;;;;;;4908698;29;20212;-77
2021/10/07 08:23:49;;;;;;;4.10;3.70;;;12.80;99.90;;;;;;4907426;29;20207;-77
2021/10/07 08:26:16;;;;;;;11.60;10.80;;;12.90;99.90;;;;;;4909687;29;20595;-79
2021/10/07 08:28:43;;;;;;;3.43;3.20;;;13.00;99.90;;;;;;4900317;29;20678;-77
2021/10/07 08:31:12;;;;;;;3.90;3.50;;;13.00;99.90;;;;;;4911842;29;20680;-76
2021/10/07 08:33:39;;;;;;;11.43;10.63;;;13.00;99.90;;;;;;4908344;29;20207;-77
2021/10/07 08:36:06;;;;;;;12.97;12.03;;;13.10;99.90;;;;;;4909581;29;20303;-77
2021/10/07 08:38:33;;;;;;;12.80;11.90;;;13.00;99.90;;;;;;4908028;29;20341;-77
2021/10/07 08:41:01;;;;;;;13.00;12.20;;;12.90;99.90;;;;;;4907695;29;20672;-77
2021/10/07 08:43:28;;;;;;;4.30;3.90;;;13.00;99.90;;;;;;4909106;29;20261;-78
2021/10/07 08:45:56;;;;;;;5.20;4.10;;;13.00;99.90;;;;;;4908723;29;20212;-77
2021/10/07 08:48:24;;;;;;;6.83;3.93;;;13.00;99.90;;;;;;4908900;29;20688;-76
2021/10/07 08:50:51;;;;;;;12.20;11.40;;;13.10;99.90;;;;;;4907261;29;20206;-77
2021/10/07 08:53:18;;;;;;;11.53;10.80;;;13.20;99.90;;;;;;4899645;29;20620;-78
2021/10/07 08:55:45;;;;;;;11.80;10.93;;;13.20;99.90;;;;;;4896280;29;20264;-77
2021/10/07 08:58:12;;;;;;;4.00;3.70;;;13.10;99.90;;;;;;4902454;29;20203;-76
2021/10/07 09:00:40;;;;;;;4.47;4.03;;;13.10;99.90;;;;;;4898666;29;20220;-76
2021/10/07 09:03:20;;;;;;;5.00;4.50;;;13.10;99.90;;;;;;4902513;29;20263;-76
2021/10/07 09:05:49;;;;;;;5.03;4.40;;;13.20;99.90;;;;;;4902728;29;20638;-77
2021/10/07 09:08:17;;;;;;;4.10;3.80;;;13.10;99.90;;;;;;4901606;29;20359;-77
2021/10/07 09:10:47;;;;;;;4.23;3.57;;;13.00;99.90;;;;;;4908169;29;20202;-77
2021/10/07 09:13:16;;;;;;;4.37;3.97;;;13.10;99.90;;;;;;4901058;29;20231;-77
2021/10/07 09:15:45;;;;;;;5.07;3.90;;;13.10;99.90;;;;;;4909831;29;20216;-77
2021/10/07 09:18:12;;;;;;;4.33;4.00;;;13.20;99.90;;;;;;4902190;29;20201;-76
2021/10/07 09:20:41;;;;;;;8.30;4.33;;;13.20;99.90;;;;;;4899932;29;20199;-77
2021/10/07 09:23:12;;;;;;;7.10;6.50;;;13.30;99.90;;;;;;4897889;29;20290;-77
2021/10/07 09:25:56;;;;;;;5.27;4.87;;;13.30;99.90;;;;;;4911086;29;20236;-77
2021/10/07 09:28:24;;;;;;;7.80;7.20;;;13.40;99.90;;;;;;4904107;29;20549;-77
2021/10/07 09:30:56;;;;;;;4.63;4.03;;;13.40;99.90;;;;;;4892992;29;20663;-77
2021/10/07 09:33:35;;;;;;;5.10;3.87;;;13.60;99.90;;;;;;4897155;29;20216;-77
2021/10/07 09:36:19;;;;;;;9.50;8.80;;;13.70;99.90;;;;;;4895218;29;20304;-77
2021/10/07 09:38:50;;;;;;;5.97;5.13;;;13.70;99.90;;;;;;4909030;29;20199;-77
2021/10/07 09:41:19;;;;;;;7.00;4.60;;;13.70;99.90;;;;;;4900241;29;20257;-78
2021/10/07 09:43:50;;;;;;;3.83;3.53;;;13.90;99.90;;;;;;4903068;29;20196;-77
2021/10/07 09:46:40;;;;;;;9.90;9.20;;;14.00;99.90;;;;;;4901888;29;20255;-77
2021/10/07 09:49:07;;;;;;;11.90;11.03;;;14.10;99.90;;;;;;4890345;29;20205;-77
2021/10/07 09:51:38;;;;;;;4.00;3.50;;;14.20;99.90;;;;;;4898984;29;20616;-76
2021/10/07 09:54:07;;;;;;;4.30;3.90;;;14.40;99.90;;;;;;4888485;29;20450;-77
2021/10/07 09:56:35;;;;;;;4.80;4.40;;;14.40;99.90;;;;;;4902868;29;20704;-77
2021/10/07 09:59:07;;;;;;;11.43;10.73;;;14.20;99.90;;;;;;4896829;29;20588;-77
2021/10/07 10:01:34;;;;;;;9.63;9.03;;;14.20;99.90;;;;;;4887262;29;20736;-77
2021/10/07 10:04:02;;;;;;;9.60;8.93;;;14.30;99.90;;;;;;4887177;29;20205;-76
2021/10/07 10:06:29;;;;;;;9.60;8.90;;;14.30;99.90;;;;;;4909756;29;20633;-77
2021/10/07 10:08:56;;;;;;;9.10;8.40;;;14.50;99.90;;;;;;4904501;29;20280;-77
2021/10/07 10:11:24;;;;;;;10.50;9.50;;;14.60;99.90;;;;;;4904958;29;20201;-77
2021/10/07 10:13:51;;;;;;;11.10;10.40;;;14.50;99.90;;;;;;4897174;29;20202;-77
2021/10/07 10:16:18;;;;;;;6.37;5.80;;;14.60;99.90;;;;;;4883366;29;20265;-77
2021/10/07 10:18:52;;;;;;;4.93;3.47;;;14.60;99.90;;;;;;4886785;29;20277;-77
2021/10/07 10:21:21;;;;;;;9.60;9.00;;;14.70;99.90;;;;;;4898396;29;20211;-77
2021/10/07 10:23:49;;;;;;;9.00;8.40;;;14.80;99.90;;;;;;4901239;29;20198;-77
2021/10/07 10:26:15;;;;;;;10.77;10.07;;;14.50;99.90;;;;;;4883563;29;20227;-76
2021/10/07 10:28:53;;;;;;;10.53;9.83;;;14.70;99.90;;;;;;4889087;29;20705;-77
2021/10/07 10:31:29;;;;;;;9.50;8.90;;;14.60;99.90;;;;;;4883741;29;20254;-77
2021/10/07 10:34:12;;;;;;;10.70;10.00;;;14.60;99.90;;;;;;4888832;29;20600;-76
2021/10/07 10:36:44;;;;;;;11.20;10.40;;;14.90;99.90;;;;;;4889354;29;20431;-77
2021/10/07 10:39:14;;;;;;;8.87;8.27;;;15.00;99.90;;;;;;4883320;29;20656;-76
2021/10/07 10:41:53;;;;;;;11.00;10.20;;;15.10;99.90;;;;;;4893279;29;20210;-77
2021/10/07 10:44:40;;;;;;;11.30;10.60;;;15.00;99.90;;;;;;4898929;29;20225;-77
2021/10/07 10:47:22;;;;;;;11.00;10.30;;;15.10;99.90;;;;;;4894852;29;20222;-77
2021/10/07 10:50:01;;;;;;;10.70;10.00;;;15.10;99.90;;;;;;4898284;29;20199;-77
2021/10/07 10:52:30;;;;;;;10.20;9.40;;;15.00;99.90;;;;;;4893672;29;20678;-77
2021/10/07 10:55:00;;;;;;;9.47;8.87;;;15.10;99.90;;;;;;4887470;29;20212;-77
2021/10/07 10:57:29;;;;;;;9.17;8.57;;;15.10;99.90;;;;;;4886318;29;20238;-77
2021/10/07 11:00:07;;;;;;;9.63;8.93;;;15.30;99.90;;;;;;4889762;29;20269;-78
2021/10/07 11:02:35;;;;;;;9.27;8.57;;;15.40;99.90;;;;;;4884875;29;20207;-77
2021/10/07 11:05:16;;;;;;;9.40;8.70;;;15.60;99.90;;;;;;4890663;29;20250;-77
2021/10/07 11:07:43;;;;;;;7.50;7.00;;;15.50;99.90;;;;;;4901579;29;20718;-76
2021/10/07 11:10:18;;;;;;;7.20;6.70;;;15.50;99.90;;;;;;4897753;29;20205;-77
2021/10/07 11:12:56;;;;;;;7.33;6.83;;;15.40;99.90;;;;;;4902180;29;20902;-77
2021/10/07 11:15:27;;;;;;;7.50;6.90;;;15.40;99.90;;;;;;4900058;29;20684;-77
2021/10/07 11:17:55;;;;;;;7.37;6.77;;;15.30;99.90;;;;;;4903111;29;20214;-79
2021/10/07 11:20:25;;;;;;;6.80;6.20;;;15.20;99.90;;;;;;4903795;29;20216;-80
2021/10/07 11:23:05;;;;;;;7.50;7.00;;;15.20;99.90;;;;;;4905417;29;20291;-77
2021/10/07 11:25:32;;;;;;;7.07;6.57;;;15.10;99.90;;;;;;4913659;29;20206;-77
2021/10/07 11:28:00;;;;;;;6.93;6.43;;;15.10;99.90;;;;;;4899566;29;20314;-77
2021/10/07 11:30:34;;;;;;;7.07;6.47;;;15.20;99.90;;;;;;4911460;29;20253;-77
2021/10/07 11:33:01;;;;;;;7.37;6.87;;;15.10;99.90;;;;;;4905327;29;20195;-79
2021/10/07 11:35:29;;;;;;;7.40;6.80;;;15.10;99.90;;;;;;4910096;29;20199;-77
2021/10/07 11:38:13;;;;;;;6.50;6.00;;;15.20;99.90;;;;;;4909428;29;20253;-76
2021/10/07 11:40:44;;;;;;;7.30;6.70;;;15.30;99.90;;;;;;4888144;29;20206;-77
2021/10/07 11:43:19;;;;;;;7.40;6.80;;;15.50;99.90;;;;;;4895134;29;20674;-77
2021/10/07 11:45:54;;;;;;;6.63;6.03;;;15.50;99.90;;;;;;4891225;29;20206;-76
2021/10/07 11:48:24;;;;;;;6.80;6.20;;;15.50;99.90;;;;;;4909321;29;20234;-77
2021/10/07 11:50:54;;;;;;;7.17;6.60;;;15.70;99.90;;;;;;4895905;29;20306;-77
2021/10/07 11:53:30;;;;;;;6.80;6.40;;;15.60;99.90;;;;;;4889402;29;20203;-77
2021/10/07 12:06:52;;;;;;;7.70;7.07;;;15.30;99.90;;;;;;4731299;30;20292;-79
2021/10/07 12:09:20;;;;;;;8.70;8.00;;;15.30;99.90;;;;;;4753096;29;20613;-79
2021/10/07 12:11:47;;;;;;;11.60;10.90;;;15.20;99.90;;;;;;4834052;29;20265;-79
2021/10/07 12:14:14;;;;;;;11.20;10.50;;;15.10;99.90;;;;;;4843793;29;20201;-78
2021/10/07 12:16:42;;;;;;;11.03;10.33;;;15.20;99.90;;;;;;4843745;29;20214;-79
2021/10/07 12:19:12;;;;;;;10.43;9.80;;;15.30;99.90;;;;;;4843687;29;20259;-76
2021/10/07 12:21:40;;;;;;;10.50;9.87;;;15.50;99.90;;;;;;4843601;29;20261;-79
2021/10/07 12:24:09;;;;;;;10.93;10.20;;;15.50;99.90;;;;;;4843425;29;20266;-79
2021/10/07 12:26:41;;;;;;;10.97;10.17;;;15.30;99.90;;;;;;4841974;29;20276;-79
2021/10/07 12:29:11;;;;;;;10.73;10.13;;;15.30;99.90;;;;;;4843088;29;20265;-79
2021/10/07 12:31:39;;;;;;;10.83;10.07;;;15.30;99.90;;;;;;4849368;29;20210;-79
2021/10/07 12:34:07;;;;;;;10.77;10.07;;;15.20;99.90;;;;;;4843016;29;20243;-79
2021/10/07 12:36:37;;;;;;;11.33;10.53;;;15.20;99.90;;;;;;4841208;29;20568;-79
2021/10/07 12:39:06;;;;;;;11.57;10.77;;;15.30;99.90;;;;;;4842755;29;20735;-79
2021/10/07 12:41:36;;;;;;;10.90;10.30;;;15.40;99.90;;;;;;4842729;29;20222;-79
2021/10/07 12:44:05;;;;;;;10.87;9.97;;;15.40;99.90;;;;;;4841802;29;20556;-79
2021/10/07 12:46:44;;;;;;;10.77;10.07;;;15.30;99.90;;;;;;4854813;29;20232;-79
2021/10/07 12:49:11;;;;;;;11.13;10.43;;;15.10;99.90;;;;;;4841476;29;20215;-79
2021/10/07 12:51:43;;;;;;;11.07;10.23;;;15.10;99.90;;;;;;4841770;29;20673;-78
2021/10/07 12:54:13;;;;;;;11.10;10.40;;;15.10;99.90;;;;;;4849416;29;20209;-80
2021/10/07 12:56:42;;;;;;;11.10;10.40;;;15.00;99.90;;;;;;4842193;29;20219;-79